Albertville, Wisconsin
Current Conditions -  °F | °C
As of 11:35 PM on Friday 31 Oct 2014 (Local Time) from KLUM Reporting Station
Clear Clear  
Wind Chill: 26°   Ceiling: Unl
Heat Index: 26°   Visibility: 10mi
Dew Point: 19°   Wind: 0mph
Humidity: 73%   Direction: NA
Pressure: 30.5"   Gusts: NA
Location:  45.0099°N, 91.7075°W
Report Text: KLUM 010435Z AUTO 00000KT 10SM CLR M03/M07 A3050 RMK AO2 T10321074
Loading
Personal Weather Stations






























Interactive Weather Map
Tropical Storm Tracking
New forecast layout! Learn more

10-Day Weather Forecast

Advertisements
Track Severe Weather on mobile